createdAt,value
2019-01-19T00:00:29.711Z,86.73
2019-01-19T00:03:07.311Z,75.23
2019-01-19T00:06:00.603Z,68.37
2019-01-19T00:08:56.290Z,71.57
2019-01-19T00:11:51.988Z,81.97
2019-01-19T00:14:24.596Z,73.47
2019-01-19T00:17:09.993Z,87.03
2019-01-19T00:19:55.787Z,80.57
2019-01-19T00:22:33.829Z,104.67
2019-01-19T00:25:23.490Z,102.83
2019-01-19T00:28:04.305Z,68.37
2019-01-19T00:30:41.096Z,72.47
2019-01-19T00:33:34.258Z,76.60
2019-01-19T00:36:19.399Z,49.10
2019-01-19T00:39:09.360Z,79.10
2019-01-19T00:41:57.747Z,85.60
2019-01-19T00:44:44.538Z,62.23
2019-01-19T00:47:24.153Z,84.63
2019-01-19T00:49:57.575Z,84.63
2019-01-19T00:52:44.615Z,63.57
2019-01-19T00:55:29.989Z,47.23
2019-01-19T00:58:25.956Z,60.57
2019-01-19T01:01:02.678Z,58.60
2019-01-19T01:03:37.298Z,66.40
2019-01-19T01:06:09.234Z,56.13
2019-01-19T01:08:47.724Z,66.40
2019-01-19T01:11:34.595Z,61.30
2019-01-19T01:14:19.867Z,60.97
2019-01-19T01:16:59.305Z,70.47
2019-01-19T01:19:55.196Z,65.30
2019-01-19T01:22:33.397Z,53.83
2019-01-19T01:25:13.350Z,49.63
2019-01-19T01:27:49.652Z,61.17
2019-01-19T01:30:54.412Z,53.37
2019-01-19T01:33:53.114Z,44.97
2019-01-19T01:36:36.255Z,62.20
2019-01-19T01:39:38.151Z,49.73
2019-01-19T01:42:33.844Z,50.47
2019-01-19T01:45:20.634Z,58.47
2019-01-19T01:48:06.007Z,47.13
2019-01-19T01:50:51.871Z,53.00
2019-01-19T01:53:41.655Z,52.83
2019-01-19T01:56:10.846Z,45.13
2019-01-19T01:58:43.968Z,66.73
2019-01-19T02:01:23.887Z,51.17
2019-01-19T02:04:10.998Z,69.43
2019-01-19T02:07:00.537Z,70.03
2019-01-19T02:09:50.396Z,58.40
2019-01-19T02:12:30.633Z,67.20
2019-01-19T02:15:11.929Z,69.17
2019-01-19T02:18:04.954Z,51.53
2019-01-19T02:20:51.705Z,69.67
2019-01-19T02:23:53.403Z,67.43
2019-01-19T02:26:52.179Z,52.30
2019-01-19T02:29:41.981Z,60.43
2019-01-19T02:32:13.828Z,62.20
2019-01-19T02:34:59.113Z,57.10
2019-01-19T02:37:45.879Z,70.97
2019-01-19T02:40:31.317Z,57.27
2019-01-19T02:43:18.074Z,63.13
2019-01-19T02:45:55.071Z,72.77
2019-01-19T02:48:47.840Z,60.77
2019-01-19T02:51:37.360Z,57.43
2019-01-19T02:54:14.724Z,58.13
2019-01-19T02:57:07.238Z,76.33
2019-01-19T02:59:41.450Z,76.43
2019-01-19T03:02:28.344Z,72.00
2019-01-19T03:05:15.096Z,70.97
2019-01-19T03:08:04.876Z,68.83
2019-01-19T03:11:00.718Z,56.53
2019-01-19T03:13:42.993Z,47.33
2019-01-19T03:16:28.148Z,40.33
2019-01-19T03:19:18.086Z,34.27
2019-01-19T03:22:05.121Z,41.77
2019-01-19T03:25:00.629Z,40.77
2019-01-19T03:27:50.162Z,39.77
2019-01-19T03:30:23.300Z,38.13
2019-01-19T03:33:01.486Z,32.63
2019-01-19T03:35:33.285Z,35.80
2019-01-19T03:38:07.530Z,36.17
2019-01-19T03:41:01.726Z,24.87
2019-01-19T03:43:44.980Z,32.90
2019-01-19T03:46:30.645Z,31.20
2019-01-19T03:49:15.807Z,32.27
2019-01-19T03:51:46.629Z,35.93
2019-01-19T03:54:39.390Z,38.93
2019-01-19T03:57:26.080Z,33.30
2019-01-19T04:00:11.512Z,27.30
2019-01-19T04:03:13.481Z,26.93
2019-01-19T04:05:54.068Z,35.97
2019-01-19T04:08:41.777Z,24.37
2019-01-19T04:11:31.816Z,29.83
2019-01-19T04:14:06.407Z,32.33
2019-01-19T04:16:40.332Z,27.97
2019-01-19T04:19:14.493Z,28.07
2019-01-19T04:21:43.739Z,27.27
2019-01-19T04:24:16.471Z,26.20
2019-01-19T04:26:45.126Z,28.83
2019-01-19T04:29:12.365Z,29.67
2019-01-19T04:31:39.897Z,27.47
2019-01-19T04:34:07.361Z,34.30
2019-01-19T04:36:35.199Z,27.50
2019-01-19T04:39:06.496Z,25.70
2019-01-19T04:41:33.754Z,25.77
2019-01-19T04:44:01.004Z,28.17
2019-01-19T04:46:28.533Z,24.70
2019-01-19T04:48:55.800Z,23.63
2019-01-19T04:51:23.032Z,23.53
2019-01-19T04:53:50.326Z,34.60
2019-01-19T04:56:17.935Z,21.50
2019-01-19T04:58:45.184Z,18.43
2019-01-19T05:01:12.838Z,23.10
2019-01-19T05:03:40.194Z,23.83
2019-01-19T05:06:12.495Z,27.70
2019-01-19T05:08:36.705Z,21.03
2019-01-19T05:11:03.967Z,22.67
2019-01-19T05:13:31.300Z,30.43
2019-01-19T05:15:58.754Z,26.73
2019-01-19T05:18:26.287Z,26.33
2019-01-19T05:20:53.735Z,21.77
2019-01-19T05:23:21.347Z,32.17
2019-01-19T05:25:48.588Z,26.43
2019-01-19T05:28:16.097Z,22.07
2019-01-19T05:30:43.460Z,24.70
2019-01-19T05:33:10.980Z,23.53
2019-01-19T05:35:38.560Z,23.33
2019-01-19T05:38:06.135Z,20.87
2019-01-19T05:40:33.409Z,21.23
2019-01-19T05:43:00.656Z,27.60
2019-01-19T05:45:28.004Z,22.17
2019-01-19T05:47:55.300Z,25.57
2019-01-19T05:50:22.603Z,24.53
2019-01-19T05:52:50.189Z,24.17
2019-01-19T05:55:17.443Z,22.77
2019-01-19T05:57:44.722Z,20.20
2019-01-19T06:00:13.421Z,17.77
2019-01-19T06:02:40.683Z,25.83
2019-01-19T06:05:07.957Z,21.07
2019-01-19T06:07:35.213Z,27.57
2019-01-19T06:10:02.614Z,25.63
2019-01-19T06:12:29.879Z,19.83
2019-01-19T06:14:57.224Z,22.73
2019-01-19T06:17:24.507Z,21.23
2019-01-19T06:19:52.254Z,26.70
2019-01-19T06:22:19.729Z,19.23
2019-01-19T06:24:47.006Z,31.87
2019-01-19T06:27:14.289Z,23.30
2019-01-19T06:29:41.521Z,26.27
2019-01-19T06:32:08.860Z,22.17
2019-01-19T06:34:36.118Z,20.50
2019-01-19T06:37:04.432Z,21.93
2019-01-19T06:39:31.824Z,27.20
2019-01-19T06:41:59.736Z,21.77
2019-01-19T06:44:27.252Z,26.03
2019-01-19T06:46:54.777Z,23.00
2019-01-19T06:49:22.094Z,20.90
2019-01-19T06:51:49.442Z,22.00
2019-01-19T06:54:17.213Z,24.03
2019-01-19T06:56:44.549Z,25.63
2019-01-19T06:59:17.371Z,23.23
2019-01-19T07:01:41.237Z,21.37
2019-01-19T07:04:08.522Z,21.73
2019-01-19T07:06:35.779Z,22.27
2019-01-19T07:09:05.300Z,23.80
2019-01-19T07:11:32.818Z,25.00
2019-01-19T07:14:00.103Z,23.47
2019-01-19T07:16:27.481Z,31.37
2019-01-19T07:18:54.861Z,26.00
2019-01-19T07:21:22.181Z,20.20
2019-01-19T07:23:49.430Z,25.13
2019-01-19T07:26:16.800Z,28.10
2019-01-19T07:28:44.097Z,27.37
2019-01-19T07:31:11.433Z,24.67
2019-01-19T07:33:38.749Z,22.00
2019-01-19T07:36:06.011Z,26.93
2019-01-19T07:38:33.393Z,32.00
2019-01-19T07:41:00.757Z,34.37
2019-01-19T07:43:28.112Z,21.53
2019-01-19T07:45:56.750Z,25.60
2019-01-19T07:48:24.096Z,22.63
2019-01-19T07:50:51.469Z,29.17
2019-01-19T07:53:18.866Z,26.17
2019-01-19T07:55:46.223Z,14.00
2019-01-19T07:58:13.483Z,26.90
2019-01-19T08:00:40.870Z,25.17
2019-01-19T08:03:08.140Z,26.17
2019-01-19T08:05:35.686Z,27.70
2019-01-19T08:08:03.194Z,26.43
2019-01-19T08:10:30.724Z,24.87
2019-01-19T08:12:58.062Z,23.07
2019-01-19T08:15:25.762Z,27.97
2019-01-19T08:17:53.383Z,26.43
2019-01-19T08:20:20.661Z,24.07
2019-01-19T08:22:48.075Z,25.20
2019-01-19T08:25:15.577Z,19.07
2019-01-19T08:27:43.112Z,21.97
2019-01-19T08:30:12.440Z,29.83
2019-01-19T08:32:40.050Z,28.37
2019-01-19T08:35:07.666Z,22.37
2019-01-19T08:37:35.016Z,27.37
2019-01-19T08:40:02.297Z,34.10
2019-01-19T08:42:29.765Z,26.70
2019-01-19T08:44:57.520Z,26.40
2019-01-19T08:47:25.071Z,20.10
2019-01-19T08:49:52.293Z,27.90
2019-01-19T08:52:19.574Z,23.83
2019-01-19T08:54:46.855Z,24.60
2019-01-19T08:57:14.471Z,29.67
2019-01-19T08:59:41.729Z,34.23
2019-01-19T09:02:09.580Z,27.77
2019-01-19T09:04:36.899Z,30.60
2019-01-19T09:07:04.522Z,29.67
2019-01-19T09:09:31.793Z,42.17
2019-01-19T09:11:59.075Z,26.27
2019-01-19T09:14:26.449Z,28.67
2019-01-19T09:16:53.797Z,26.70
2019-01-19T09:19:21.348Z,26.30
2019-01-19T09:21:49.722Z,24.63
2019-01-19T09:24:25.908Z,23.60
2019-01-19T09:26:53.325Z,25.70
2019-01-19T09:29:20.951Z,23.23
2019-01-19T09:31:48.292Z,28.00
2019-01-19T09:34:15.870Z,31.07
2019-01-19T09:36:43.151Z,29.37
2019-01-19T09:39:10.663Z,27.53
2019-01-19T09:41:37.935Z,22.80
2019-01-19T09:44:05.621Z,27.90
2019-01-19T09:46:33.168Z,23.87
2019-01-19T09:49:00.519Z,25.83
2019-01-19T09:51:27.772Z,29.33
2019-01-19T09:53:55.043Z,21.30
2019-01-19T09:56:22.757Z,31.13
2019-01-19T09:58:50.015Z,24.13
2019-01-19T10:01:17.268Z,25.53
2019-01-19T10:03:44.523Z,26.20
2019-01-19T10:06:11.847Z,27.03
2019-01-19T10:08:39.175Z,19.43
2019-01-19T10:11:06.847Z,15.17
2019-01-19T10:13:34.385Z,23.97
2019-01-19T10:16:01.801Z,19.63
2019-01-19T10:18:29.380Z,23.90
2019-01-19T10:20:57.336Z,22.47
2019-01-19T10:23:24.592Z,25.00
2019-01-19T10:25:51.847Z,14.73
2019-01-19T10:28:19.101Z,20.60
2019-01-19T10:30:46.364Z,19.83
2019-01-19T10:33:14.103Z,21.57
2019-01-19T10:35:41.658Z,16.83
2019-01-19T10:38:08.912Z,17.43
2019-01-19T10:40:36.306Z,18.20
2019-01-19T10:43:03.652Z,20.30
2019-01-19T10:45:30.900Z,15.90
2019-01-19T10:47:58.173Z,15.30
2019-01-19T10:50:25.700Z,15.90
2019-01-19T10:52:52.942Z,20.93
2019-01-19T10:55:20.321Z,15.10
2019-01-19T10:57:47.596Z,20.73
2019-01-19T11:00:19.265Z,18.33
2019-01-19T11:02:46.532Z,10.67
2019-01-19T11:05:13.911Z,16.33
2019-01-19T11:07:43.064Z,16.93
2019-01-19T11:10:11.677Z,15.40
2019-01-19T11:12:38.944Z,15.53
2019-01-19T11:15:07.061Z,14.00
2019-01-19T11:17:34.692Z,16.97
2019-01-19T11:20:01.976Z,13.47
2019-01-19T11:22:29.239Z,17.20
2019-01-19T11:24:56.588Z,16.93
2019-01-19T11:27:23.952Z,14.17
2019-01-19T11:29:51.234Z,20.87
2019-01-19T11:32:18.846Z,13.97
2019-01-19T11:34:46.125Z,14.20
2019-01-19T11:37:13.378Z,19.37
2019-01-19T11:39:40.632Z,18.10
2019-01-19T11:42:08.188Z,17.07
2019-01-19T11:44:35.529Z,15.27
2019-01-19T11:47:02.821Z,12.43
2019-01-19T11:49:30.121Z,8.07
2019-01-19T11:51:57.710Z,19.73
2019-01-19T11:54:25.168Z,11.10
2019-01-19T11:56:52.402Z,13.73
2019-01-19T11:59:20.216Z,18.87
2019-01-19T12:01:47.845Z,15.50
2019-01-19T12:04:15.384Z,13.57
2019-01-19T12:06:42.586Z,15.10
2019-01-19T12:09:09.921Z,15.67
2019-01-19T12:11:37.289Z,19.53
2019-01-19T12:14:04.685Z,14.00
2019-01-19T12:16:31.952Z,13.87
2019-01-19T12:18:59.216Z,14.97
2019-01-19T12:21:26.591Z,17.07
2019-01-19T12:23:54.146Z,11.67
2019-01-19T12:26:21.406Z,15.50
2019-01-19T12:28:48.699Z,13.83
2019-01-19T12:31:15.973Z,9.47
2019-01-19T12:33:43.272Z,18.07
2019-01-19T12:36:10.611Z,21.13
2019-01-19T12:38:38.140Z,17.53
2019-01-19T12:41:05.511Z,17.20
2019-01-19T12:43:32.893Z,70.90
2019-01-19T12:46:01.433Z,39.80
2019-01-19T12:48:28.808Z,8.60
2019-01-19T12:50:56.081Z,14.90
2019-01-19T12:53:23.716Z,10.80
2019-01-19T12:55:50.995Z,17.53
2019-01-19T12:58:18.536Z,17.17
2019-01-19T13:00:46.073Z,14.83
2019-01-19T13:03:13.359Z,17.23
2019-01-19T13:05:45.367Z,17.37
2019-01-19T13:08:13.793Z,11.17
2019-01-19T13:10:52.265Z,11.80
2019-01-19T13:13:31.077Z,18.00
2019-01-19T13:16:36.038Z,16.10
2019-01-19T13:19:28.396Z,12.00
2019-01-19T13:22:17.731Z,15.40
2019-01-19T13:25:04.814Z,12.10
2019-01-19T13:27:51.737Z,12.73
2019-01-19T13:30:21.872Z,13.10
2019-01-19T13:33:07.332Z,12.03
2019-01-19T13:35:57.534Z,13.53
2019-01-19T13:38:31.227Z,15.30
2019-01-19T13:41:18.004Z,12.57
2019-01-19T13:44:04.825Z,13.87
2019-01-19T13:46:58.116Z,13.93
2019-01-19T13:49:50.861Z,21.97
2019-01-19T13:52:21.276Z,16.00
2019-01-19T13:54:57.455Z,14.83
2019-01-19T13:57:50.011Z,20.27
2019-01-19T14:00:27.398Z,20.27
2019-01-19T14:03:14.501Z,16.07
2019-01-19T14:06:04.024Z,16.27
2019-01-19T14:08:39.862Z,16.17
2019-01-19T14:11:32.759Z,12.70
2019-01-19T14:14:06.537Z,14.13
2019-01-19T14:17:02.592Z,11.63
2019-01-19T14:19:58.614Z,18.20
2019-01-19T14:22:54.308Z,12.57
2019-01-19T14:25:41.057Z,22.67
2019-01-19T14:37:28.929Z,14.33
2019-01-19T14:40:05.804Z,14.67
2019-01-19T14:42:55.710Z,19.30
2019-01-19T14:46:00.462Z,17.87
2019-01-19T14:48:37.915Z,13.70
2019-01-19T14:51:19.814Z,15.30
2019-01-19T14:54:06.607Z,17.60
2019-01-19T14:56:53.555Z,16.70
2019-01-19T14:59:36.643Z,16.13
2019-01-19T15:02:18.926Z,14.53
2019-01-19T15:04:51.754Z,17.13
2019-01-19T15:07:41.548Z,13.43
2019-01-19T15:10:12.472Z,15.23
2019-01-19T15:13:06.142Z,17.97
2019-01-19T15:15:46.453Z,12.20
2019-01-19T15:18:19.140Z,15.50
2019-01-19T15:21:04.651Z,15.33
2019-01-19T15:23:46.777Z,17.13
2019-01-19T15:26:32.167Z,20.40
2019-01-19T15:29:08.088Z,16.20
2019-01-19T15:31:53.587Z,11.97
2019-01-19T15:34:38.707Z,16.70
2019-01-19T15:37:34.362Z,21.33
2019-01-19T15:40:19.907Z,12.27
2019-01-19T15:43:05.328Z,17.17
2019-01-19T15:45:40.314Z,17.13
2019-01-19T15:48:27.184Z,22.47
2019-01-19T15:51:16.570Z,18.23
2019-01-19T15:53:59.915Z,18.63
2019-01-19T15:57:05.017Z,15.77
2019-01-19T15:59:40.960Z,16.20
2019-01-19T16:02:26.475Z,20.17
2019-01-19T16:05:19.284Z,29.10
2019-01-19T16:08:04.795Z,13.00
2019-01-19T16:11:00.641Z,17.77
2019-01-19T16:13:56.177Z,21.07
2019-01-19T16:16:45.741Z,19.37
2019-01-19T16:19:31.029Z,20.43
2019-01-19T16:22:26.859Z,21.53
2019-01-19T16:25:01.644Z,19.53
2019-01-19T16:27:48.025Z,19.60
2019-01-19T16:30:46.942Z,23.23
2019-01-19T16:33:33.084Z,19.03
2019-01-19T16:36:29.060Z,21.83
2019-01-19T16:39:14.523Z,22.37
2019-01-19T16:42:04.539Z,20.77
2019-01-19T16:44:39.199Z,19.37
2019-01-19T16:47:24.672Z,26.40
2019-01-19T16:50:12.982Z,21.57
2019-01-19T16:56:00.986Z,30.37
2019-01-19T16:59:05.553Z,29.77
2019-01-19T17:01:52.316Z,27.43
2019-01-19T17:04:42.109Z,30.97
2019-01-19T17:07:16.928Z,32.67
2019-01-19T17:09:55.684Z,28.93
2019-01-19T17:12:38.904Z,26.13
2019-01-19T17:15:31.766Z,25.33
2019-01-19T17:18:11.021Z,27.23
2019-01-19T17:20:56.808Z,25.63
2019-01-19T17:23:43.620Z,27.20
2019-01-19T17:26:24.978Z,37.77
2019-01-19T17:29:11.865Z,35.60
2019-01-19T17:31:55.665Z,32.97
2019-01-19T17:34:27.627Z,30.43
2019-01-19T17:36:58.262Z,30.77
2019-01-19T17:39:51.869Z,28.37
2019-01-19T17:42:53.685Z,30.43
2019-01-19T17:45:28.174Z,26.50
2019-01-19T17:48:17.717Z,30.77
2019-01-19T17:51:10.322Z,30.67
2019-01-19T17:56:43.458Z,27.90
2019-01-19T17:59:22.182Z,32.40
2019-01-19T18:01:58.992Z,29.37
2019-01-19T18:04:39.490Z,34.37
2019-01-19T18:07:13.453Z,29.20
2019-01-19T18:10:06.325Z,38.17
2019-01-19T18:12:53.897Z,34.33
2019-01-19T18:15:39.482Z,32.50
2019-01-19T18:18:29.058Z,33.97
2019-01-19T18:21:09.568Z,28.20
2019-01-19T18:23:56.471Z,30.60
2019-01-19T18:26:43.280Z,26.70
2019-01-19T18:29:16.228Z,28.73
2019-01-19T18:32:06.129Z,29.87
2019-01-19T18:34:40.857Z,25.87
2019-01-19T18:37:23.656Z,30.40
2019-01-19T18:39:57.747Z,27.10
2019-01-19T18:42:50.639Z,27.60
2019-01-19T18:45:37.416Z,26.10
2019-01-19T18:48:23.126Z,27.07
2019-01-19T18:51:16.036Z,29.97
2019-01-19T18:54:17.847Z,30.27
2019-01-19T18:57:00.112Z,25.57
2019-01-19T18:59:48.726Z,28.43
2019-01-19T19:02:38.732Z,26.60
2019-01-19T19:05:25.483Z,32.07
2019-01-19T19:08:06.060Z,27.43
2019-01-19T19:10:51.268Z,26.73
2019-01-19T19:13:38.011Z,33.53
2019-01-19T19:16:09.019Z,30.77
2019-01-19T19:18:58.950Z,28.63
2019-01-19T19:21:32.163Z,34.50
2019-01-19T19:24:21.455Z,29.47
2019-01-19T19:27:03.194Z,28.90
2019-01-19T19:29:59.247Z,26.27
2019-01-19T19:32:37.625Z,26.57
2019-01-19T19:35:27.716Z,27.47
2019-01-19T19:38:03.252Z,27.70
2019-01-19T19:40:50.015Z,35.47
2019-01-19T19:43:55.049Z,27.63
2019-01-19T19:46:40.202Z,38.27
2019-01-19T19:49:14.840Z,34.83
2019-01-19T19:52:04.211Z,27.93
2019-01-19T19:54:31.932Z,48.60
2019-01-19T19:56:59.599Z,38.53
2019-01-19T19:59:26.858Z,32.13
2019-01-19T20:01:54.151Z,33.47
2019-01-19T20:04:41.093Z,36.53
2019-01-19T20:16:05.524Z,29.50
2019-01-19T20:18:33.118Z,32.20
2019-01-19T20:21:00.490Z,27.13
2019-01-19T20:23:27.892Z,30.77
2019-01-19T20:25:55.194Z,29.77
2019-01-19T20:28:22.558Z,24.57
2019-01-19T20:30:49.828Z,32.07
2019-01-19T20:33:17.123Z,24.53
2019-01-19T20:36:04.112Z,35.13
2019-01-19T20:38:31.523Z,26.20
2019-01-19T20:40:59.079Z,30.57
2019-01-19T20:43:26.720Z,25.30
2019-01-19T20:45:54.089Z,26.47
2019-01-19T20:48:21.741Z,22.70
2019-01-19T20:50:49.167Z,25.40
2019-01-19T20:53:16.932Z,24.70
2019-01-19T20:55:44.314Z,23.80
2019-01-19T20:58:11.610Z,26.47
2019-01-19T21:00:39.291Z,21.87
2019-01-19T21:03:06.610Z,23.03
2019-01-19T21:05:33.898Z,24.27
2019-01-19T21:08:01.272Z,24.93
2019-01-19T21:10:31.956Z,27.33
2019-01-19T21:12:58.132Z,21.57
2019-01-19T21:15:25.497Z,21.87
2019-01-19T21:17:55.827Z,25.77
2019-01-19T21:20:22.712Z,25.30
2019-01-19T21:22:50.377Z,21.87
2019-01-19T21:25:17.689Z,23.47
2019-01-19T21:27:45.568Z,23.10
2019-01-19T21:30:13.539Z,23.57
2019-01-19T21:32:41.181Z,22.43
2019-01-19T21:35:08.556Z,24.60
2019-01-19T21:37:36.188Z,22.37
2019-01-19T21:40:04.834Z,19.27
2019-01-19T21:42:32.116Z,24.33
2019-01-19T21:44:59.396Z,25.17
2019-01-19T21:47:26.946Z,30.23
2019-01-19T21:49:54.590Z,28.20
2019-01-19T21:52:21.874Z,26.23
2019-01-19T21:54:49.240Z,32.63
2019-01-19T21:57:16.534Z,30.50
2019-01-19T21:59:43.881Z,32.80
2019-01-19T22:02:11.239Z,42.73
2019-01-19T22:04:38.616Z,38.70
2019-01-19T22:07:05.987Z,32.77
2019-01-19T22:09:33.351Z,31.00
2019-01-19T22:12:00.729Z,34.27
2019-01-19T22:14:28.083Z,27.13
2019-01-19T22:16:55.384Z,39.57
2019-01-19T22:19:22.636Z,29.57
2019-01-19T22:21:49.907Z,35.87
2019-01-19T22:24:17.334Z,35.13
2019-01-19T22:26:47.286Z,32.63
2019-01-19T22:29:14.835Z,36.17
2019-01-19T22:31:42.212Z,29.43
2019-01-19T22:34:09.490Z,34.20
2019-01-19T22:36:37.072Z,40.77
2019-01-19T22:39:06.243Z,35.27
2019-01-19T22:41:33.529Z,42.20
2019-01-19T22:44:00.906Z,34.30
2019-01-19T22:46:29.457Z,31.40
2019-01-19T22:48:56.810Z,33.87
2019-01-19T22:51:24.197Z,26.97
2019-01-19T22:53:51.558Z,34.33
2019-01-19T22:56:18.824Z,32.80
2019-01-19T22:58:46.081Z,34.77
2019-01-19T23:01:32.828Z,29.77
2019-01-19T23:04:00.170Z,33.17
2019-01-19T23:06:28.098Z,24.37
2019-01-19T23:08:56.659Z,34.37
2019-01-19T23:11:24.063Z,33.70
2019-01-19T23:13:53.164Z,29.80
2019-01-19T23:16:20.502Z,28.23
2019-01-19T23:18:47.804Z,33.00
2019-01-19T23:21:15.463Z,28.00
2019-01-19T23:23:43.089Z,33.73
2019-01-19T23:26:10.552Z,31.53
2019-01-19T23:28:37.850Z,26.17
2019-01-19T23:31:05.092Z,32.33
2019-01-19T23:33:32.719Z,28.60
2019-01-19T23:35:59.996Z,29.43
2019-01-19T23:38:27.328Z,29.07
2019-01-19T23:40:54.573Z,31.90
2019-01-19T23:43:21.865Z,27.43
2019-01-19T23:45:49.364Z,34.93
2019-01-19T23:48:16.618Z,34.60
2019-01-19T23:50:44.204Z,26.47
2019-01-19T23:53:11.747Z,27.30
2019-01-19T23:55:39.002Z,28.93
2019-01-19T23:58:06.621Z,28.60
